Time;durP1;ratioP1;P1;durP2;ratioP2;P2;SDS_P1;SDS_P2;PMS_P1;PMS_P2;Temp;Humidity;BMP_temperature;BMP_pressure;BME280_temperature;BME280_humidity;BME280_pressure;Samples;Min_cycle;Max_cycle;Signal;HPM_P1;HPM_P2
2023/05/22 00:01:20;;;;;;;35.35;25.62;;;30.50;87.00;;;;;;1880512;75;21154;-85
2023/05/22 00:03:51;;;;;;;34.13;24.02;;;30.60;87.00;;;;;;1868915;75;21146;-86
2023/05/22 00:06:23;;;;;;;31.48;23.02;;;30.60;87.40;;;;;;1855257;76;22190;-85
2023/05/22 00:08:54;;;;;;;36.55;24.90;;;30.60;87.10;;;;;;1873694;76;21223;-86
2023/05/22 00:11:36;;;;;;;30.30;25.37;;;30.60;87.20;;;;;;1866488;76;21188;-84
2023/05/22 00:17:29;;;;;;;31.50;24.45;;;30.60;87.10;;;;;;1740216;80;21193;-84
2023/05/22 00:20:26;;;;;;;;;;;30.60;86.90;;;;;;1762896;80;21204;-84
2023/05/22 00:22:49;;;;;;;30.85;25.12;;;30.60;85.80;;;;;;1815641;78;20257;-85
2023/05/22 00:25:48;;;;;;;33.85;25.72;;;30.70;87.30;;;;;;1840682;76;21159;-85
2023/05/22 00:28:21;;;;;;;32.33;25.40;;;30.70;86.30;;;;;;1774990;80;21110;-85
2023/05/22 00:31:17;;;;;;;34.48;26.35;;;30.70;86.20;;;;;;1723944;82;21167;-85
2023/05/22 00:34:24;;;;;;;32.50;25.48;;;30.70;86.00;;;;;;1712619;82;21192;-85
2023/05/22 00:36:51;;;;;;;33.53;24.95;;;30.80;86.40;;;;;;1718277;82;21367;-85
2023/05/22 00:39:23;;;;;;;32.63;24.65;;;30.80;85.80;;;;;;1732998;81;21298;-85
2023/05/22 00:41:54;;;;;;;30.15;25.12;;;30.90;86.00;;;;;;1786648;77;21166;-86
2023/05/22 00:44:25;;;;;;;35.95;26.80;;;30.90;86.20;;;;;;1846934;76;21142;-84
2023/05/22 00:46:56;;;;;;;36.95;25.90;;;31.00;85.90;;;;;;1850238;77;21174;-84
2023/05/22 00:49:27;;;;;;;34.13;27.25;;;31.00;85.90;;;;;;1860814;76;21407;-83
2023/05/22 00:51:59;;;;;;;31.27;25.75;;;31.10;85.60;;;;;;1871782;76;21070;-84
2023/05/22 00:54:32;;;;;;;41.70;25.30;;;31.20;85.70;;;;;;1876258;76;21251;-83
2023/05/22 00:57:09;;;;;;;33.92;24.47;;;31.20;84.80;;;;;;1881444;76;21224;-79
2023/05/22 00:59:52;;;;;;;36.65;26.73;;;31.30;84.60;;;;;;1830246;77;21370;-82
2023/05/22 01:02:41;;;;;;;56.08;28.10;;;31.40;84.50;;;;;;1842067;77;21226;-77
2023/05/22 01:05:18;;;;;;;49.48;29.15;;;31.40;84.40;;;;;;1847399;74;21661;-81
2023/05/22 01:07:49;;;;;;;105.97;33.20;;;31.50;83.90;;;;;;1880231;75;21229;-75
2023/05/22 01:10:20;;;;;;;41.42;27.52;;;31.50;84.80;;;;;;1885102;75;21634;-74
2023/05/22 01:13:08;;;;;;;61.28;29.40;;;31.50;84.60;;;;;;1888723;75;21064;-79
2023/05/22 01:16:01;;;;;;;207.67;40.85;;;31.50;84.50;;;;;;1841603;75;21137;-75
2023/05/22 01:18:45;;;;;;;95.15;31.65;;;31.60;84.70;;;;;;1854405;76;21179;-80
2023/05/22 01:21:39;;;;;;;57.13;29.23;;;31.70;84.10;;;;;;1880772;75;21129;-80
2023/05/22 01:24:30;;;;;;;70.80;28.17;;;31.70;83.70;;;;;;1879660;75;21098;-81
2023/05/22 01:27:07;;;;;;;49.35;29.42;;;31.80;83.60;;;;;;1886051;75;21423;-78
2023/05/22 01:30:08;;;;;;;35.73;27.65;;;31.90;82.90;;;;;;1884014;75;21146;-84
2023/05/22 01:32:58;;;;;;;45.83;26.55;;;31.90;82.20;;;;;;1878733;75;21520;-78
2023/05/22 01:35:50;;;;;;;44.23;27.20;;;32.00;82.30;;;;;;1878481;75;21306;-80
2023/05/22 01:38:30;;;;;;;37.78;26.73;;;32.00;82.20;;;;;;1877973;75;21129;-84
2023/05/22 01:41:05;;;;;;;40.63;27.07;;;32.10;82.10;;;;;;1861060;76;21996;-76
2023/05/22 01:43:37;;;;;;;36.58;25.50;;;32.10;82.20;;;;;;1848504;76;21183;-82
2023/05/22 01:46:09;;;;;;;34.38;26.42;;;32.10;82.20;;;;;;1893770;75;21142;-78
2023/05/22 01:48:40;;;;;;;40.70;26.82;;;32.20;82.40;;;;;;1883385;75;21155;-79
2023/05/22 01:51:16;;;;;;;32.50;25.62;;;32.20;82.40;;;;;;1880849;75;21234;-79
2023/05/22 01:53:59;;;;;;;38.05;27.60;;;32.20;81.70;;;;;;1839978;77;21725;-75
2023/05/22 01:56:33;;;;;;;38.75;32.53;;;32.20;81.50;;;;;;1878813;75;21102;-81
2023/05/22 01:59:21;;;;;;;33.42;25.48;;;32.30;81.20;;;;;;1885761;75;21119;-80
2023/05/22 02:02:03;;;;;;;37.13;26.50;;;32.30;80.60;;;;;;1874453;75;21654;-83
2023/05/22 02:04:53;;;;;;;31.90;25.90;;;32.40;80.60;;;;;;1691597;77;21193;-82
2023/05/22 02:07:25;;;;;;;31.23;25.85;;;32.40;80.50;;;;;;1838552;76;21217;-81
2023/05/22 02:09:58;;;;;;;44.05;27.37;;;32.50;79.70;;;;;;1869786;75;21158;-80
2023/05/22 02:12:30;;;;;;;39.40;26.37;;;32.60;80.30;;;;;;1876538;75;21153;-80
2023/05/22 02:15:04;;;;;;;33.67;24.57;;;32.70;79.00;;;;;;1876555;75;21139;-80
2023/05/22 02:17:41;;;;;;;33.05;24.43;;;32.80;78.80;;;;;;1874681;75;21175;-82
2023/05/22 02:20:15;;;;;;;36.03;27.52;;;32.90;78.50;;;;;;1859461;76;21133;-81
2023/05/22 02:22:56;;;;;;;35.95;25.70;;;33.10;77.90;;;;;;1870736;75;21688;-76
2023/05/22 02:25:27;;;;;;;36.58;26.15;;;33.20;77.70;;;;;;1820698;78;21201;-79
2023/05/22 02:27:59;;;;;;;33.28;25.88;;;33.30;77.50;;;;;;1887178;75;21607;-81
2023/05/22 02:30:30;;;;;;;28.05;24.85;;;33.50;77.10;;;;;;1869749;75;21180;-81
2023/05/22 02:33:08;;;;;;;32.40;24.40;;;33.50;77.20;;;;;;1886348;75;21221;-77
2023/05/22 02:35:34;;;;;;;37.53;25.48;;;33.60;76.00;;;;;;1883633;75;21196;-79
2023/05/22 02:38:05;;;;;;;43.63;25.85;;;33.70;76.80;;;;;;1872193;75;21149;-80
2023/05/22 02:40:36;;;;;;;31.50;24.60;;;33.80;76.30;;;;;;1868847;75;21072;-80
2023/05/22 02:43:08;;;;;;;44.25;25.90;;;33.90;76.30;;;;;;1862930;75;21166;-81
2023/05/22 02:45:39;;;;;;;33.85;25.55;;;33.90;76.80;;;;;;1868591;75;21050;-82
2023/05/22 02:48:10;;;;;;;35.00;24.23;;;34.00;76.20;;;;;;1874515;75;21135;-80
2023/05/22 02:50:43;;;;;;;31.30;23.02;;;34.00;75.80;;;;;;1879082;75;21187;-82
2023/05/22 02:53:14;;;;;;;35.20;24.92;;;34.00;76.70;;;;;;1856591;75;21602;-81
2023/05/22 02:55:45;;;;;;;35.60;24.18;;;34.10;75.20;;;;;;1856084;76;21064;-81
2023/05/22 02:58:22;;;;;;;34.55;24.87;;;34.20;75.40;;;;;;1872622;75;21688;-82
2023/05/22 03:00:53;;;;;;;37.30;24.82;;;34.20;74.20;;;;;;1879056;75;21182;-85
2023/05/22 03:03:24;;;;;;;36.63;24.85;;;34.30;74.40;;;;;;1876110;76;21635;-82
2023/05/22 03:05:57;;;;;;;42.23;26.07;;;34.30;73.90;;;;;;1896593;75;21509;-81
2023/05/22 03:08:30;;;;;;;37.93;24.72;;;34.40;73.90;;;;;;1792829;78;21192;-83
2023/05/22 03:11:02;;;;;;;30.50;25.92;;;34.60;73.70;;;;;;1854709;77;21203;-81
2023/05/22 03:13:33;;;;;;;41.20;25.55;;;34.70;73.50;;;;;;1830308;77;21151;-83
2023/05/22 03:16:06;;;;;;;33.60;24.50;;;34.70;73.00;;;;;;1836095;77;21291;-78
2023/05/22 03:18:37;;;;;;;37.17;24.87;;;34.80;71.40;;;;;;1800513;78;21187;-82
2023/05/22 03:21:09;;;;;;;32.95;23.77;;;34.90;71.40;;;;;;1843227;77;21072;-82
2023/05/22 03:23:47;;;;;;;34.43;23.85;;;35.00;70.90;;;;;;1811502;78;21277;-80
2023/05/22 03:26:20;;;;;;;31.07;23.90;;;35.00;71.30;;;;;;1838476;77;21251;-81
2023/05/22 03:28:51;;;;;;;29.25;22.87;;;35.10;71.50;;;;;;1848005;77;21090;-80
2023/05/22 03:31:22;;;;;;;30.70;23.27;;;35.20;70.90;;;;;;1827511;78;21132;-80
2023/05/22 03:33:53;;;;;;;28.90;23.77;;;35.30;70.60;;;;;;1858385;77;21169;-78
2023/05/22 03:36:24;;;;;;;31.85;21.90;;;35.40;69.40;;;;;;1843882;77;21701;-81
2023/05/22 03:38:56;;;;;;;31.07;21.33;;;35.40;68.60;;;;;;1837434;77;21118;-79
2023/05/22 03:41:27;;;;;;;28.73;21.33;;;35.40;68.30;;;;;;1832992;77;21178;-81
2023/05/22 03:43:59;;;;;;;30.05;21.75;;;35.50;67.80;;;;;;1855181;77;21118;-78
2023/05/22 03:46:30;;;;;;;36.30;20.68;;;35.50;66.20;;;;;;1831897;77;21193;-79
2023/05/22 03:49:01;;;;;;;24.95;20.40;;;35.60;66.80;;;;;;1814710;78;21287;-79
2023/05/22 03:51:37;;;;;;;32.35;20.80;;;35.70;67.10;;;;;;1838983;77;21091;-81
2023/05/22 03:54:08;;;;;;;24.30;21.65;;;35.80;67.30;;;;;;1835704;77;21243;-79
2023/05/22 03:56:44;;;;;;;28.42;21.55;;;35.90;66.50;;;;;;1855359;77;21146;-80
2023/05/22 03:59:15;;;;;;;25.97;20.95;;;35.90;66.20;;;;;;1841062;77;21178;-79
2023/05/22 04:02:02;;;;;;;25.70;19.62;;;36.00;66.30;;;;;;1841050;77;21067;-78
2023/05/22 04:04:27;;;;;;;34.33;20.60;;;36.00;66.10;;;;;;1839657;77;21201;-82
2023/05/22 04:06:58;;;;;;;28.95;21.17;;;36.10;64.50;;;;;;1860949;75;21167;-81
2023/05/22 04:09:31;;;;;;;26.12;20.27;;;36.10;65.80;;;;;;1876240;76;21168;-81
2023/05/22 04:12:03;;;;;;;33.45;20.97;;;36.20;65.00;;;;;;1908848;75;21083;-80
2023/05/22 04:14:35;;;;;;;27.02;19.65;;;36.30;66.00;;;;;;1885905;75;21390;-81
2023/05/22 04:17:06;;;;;;;24.43;17.23;;;36.40;64.20;;;;;;1846637;76;21139;-83
2023/05/22 04:19:42;;;;;;;26.57;17.80;;;36.40;64.00;;;;;;1890923;75;21221;-85
2023/05/22 04:22:09;;;;;;;23.07;18.10;;;36.50;61.80;;;;;;1874070;75;21106;-81
2023/05/22 04:24:47;;;;;;;26.07;19.48;;;36.50;61.90;;;;;;1878989;75;21126;-80
2023/05/22 04:27:21;;;;;;;33.88;18.15;;;36.50;62.90;;;;;;1871040;75;21084;-83
2023/05/22 04:29:52;;;;;;;27.22;17.85;;;36.60;62.50;;;;;;1877095;75;21155;-81
2023/05/22 04:32:23;;;;;;;23.27;17.60;;;36.70;61.80;;;;;;1879510;75;21140;-81
2023/05/22 04:34:59;;;;;;;22.80;16.97;;;36.70;61.80;;;;;;1837540;77;21108;-82
2023/05/22 04:37:30;;;;;;;28.62;17.67;;;36.70;62.20;;;;;;1867618;75;21361;-81
2023/05/22 04:40:06;;;;;;;28.90;17.65;;;36.70;61.60;;;;;;1872569;75;21124;-83
2023/05/22 04:42:39;;;;;;;26.25;18.82;;;36.70;61.50;;;;;;1868650;76;21119;-80
2023/05/22 04:45:12;;;;;;;25.68;17.98;;;36.70;61.70;;;;;;1886477;75;21651;-83
2023/05/22 04:47:43;;;;;;;26.97;18.00;;;36.80;61.80;;;;;;1838544;76;21167;-83
2023/05/22 04:50:15;;;;;;;24.72;17.87;;;36.80;60.70;;;;;;1867072;75;21807;-80
2023/05/22 04:52:46;;;;;;;25.25;18.07;;;36.90;61.00;;;;;;1866281;75;21134;-85
2023/05/22 04:55:17;;;;;;;26.20;18.73;;;37.00;59.50;;;;;;1869956;75;21673;-83
2023/05/22 04:58:22;;;;;;;27.82;18.17;;;37.00;59.90;;;;;;1870250;75;21159;-81
2023/05/22 05:00:56;;;;;;;26.30;18.50;;;37.00;60.00;;;;;;1901405;75;21174;-81
2023/05/22 05:03:30;;;;;;;31.70;19.17;;;37.00;59.80;;;;;;1872077;75;21139;-81
2023/05/22 05:06:08;;;;;;;28.27;19.30;;;37.00;59.80;;;;;;1876144;76;21286;-83
2023/05/22 05:08:41;;;;;;;24.30;18.67;;;37.00;60.60;;;;;;1874349;74;21713;-81
2023/05/22 05:11:17;;;;;;;28.67;19.35;;;37.00;59.80;;;;;;1849612;77;21180;-82
2023/05/22 05:13:50;;;;;;;24.75;18.92;;;37.00;60.70;;;;;;1881065;74;21053;-80
2023/05/22 05:16:22;;;;;;;31.05;18.57;;;37.00;60.40;;;;;;1880695;75;21208;-81
2023/05/22 05:18:54;;;;;;;24.40;18.73;;;37.00;60.60;;;;;;1884854;76;21142;-80
2023/05/22 05:21:26;;;;;;;32.05;20.72;;;37.00;60.10;;;;;;1876695;74;21095;-81
2023/05/22 05:23:57;;;;;;;28.67;19.90;;;37.00;60.70;;;;;;1867408;76;21631;-80
2023/05/22 05:26:29;;;;;;;35.45;24.87;;;37.00;60.70;;;;;;1864856;76;21111;-80
2023/05/22 05:29:01;;;;;;;24.75;19.82;;;36.90;61.00;;;;;;1882443;76;21051;-81
2023/05/22 05:31:32;;;;;;;25.30;18.10;;;36.90;61.30;;;;;;1869872;76;21712;-80
2023/05/22 05:34:04;;;;;;;25.08;18.05;;;37.00;59.90;;;;;;1886994;75;21200;-80
2023/05/22 05:36:53;;;;;;;22.55;16.25;;;37.00;59.60;;;;;;1877105;76;21656;-80
2023/05/22 05:39:35;;;;;;;22.25;17.37;;;37.10;58.60;;;;;;1899085;74;21080;-80
2023/05/22 05:42:08;;;;;;;23.18;17.67;;;37.10;58.40;;;;;;1858496;76;21075;-80
2023/05/22 05:44:39;;;;;;;25.27;16.75;;;37.10;58.80;;;;;;1844715;76;21166;-78
2023/05/22 05:47:10;;;;;;;23.00;16.37;;;37.10;59.10;;;;;;1888826;76;21180;-79
2023/05/22 05:49:41;;;;;;;25.57;16.75;;;37.00;58.80;;;;;;1878256;75;21188;-80
2023/05/22 05:52:15;;;;;;;21.82;16.73;;;37.10;59.30;;;;;;1896711;74;21080;-81
2023/05/22 05:54:46;;;;;;;20.35;17.50;;;37.10;59.10;;;;;;1878604;75;21103;-77
2023/05/22 05:57:18;;;;;;;23.07;16.80;;;37.20;58.70;;;;;;1866571;76;21151;-78
2023/05/22 05:59:49;;;;;;;24.30;17.20;;;37.20;58.90;;;;;;1881738;75;21132;-78
2023/05/22 06:02:20;;;;;;;22.48;16.95;;;37.20;59.00;;;;;;1856350;76;21209;-82
2023/05/22 06:04:52;;;;;;;23.47;18.62;;;37.30;59.20;;;;;;1878718;75;21139;-80
2023/05/22 06:07:24;;;;;;;26.33;17.00;;;37.30;58.60;;;;;;1879869;75;21120;-79
2023/05/22 06:09:55;;;;;;;29.65;17.37;;;37.30;58.70;;;;;;1863914;76;21547;-78
2023/05/22 06:12:34;;;;;;;27.77;17.35;;;37.30;58.60;;;;;;1858340;76;21091;-79
2023/05/22 06:15:11;;;;;;;102.55;26.85;;;37.20;59.00;;;;;;1897445;74;21176;-79
2023/05/22 06:17:41;;;;;;;23.35;16.17;;;37.30;59.10;;;;;;1890400;74;21167;-79
2023/05/22 06:20:14;;;;;;;57.38;19.52;;;37.20;58.40;;;;;;1874722;75;21560;-84
2023/05/22 06:22:45;;;;;;;30.27;17.50;;;37.20;58.10;;;;;;1886419;74;21582;-80
2023/05/22 06:25:16;;;;;;;30.90;16.90;;;37.20;58.10;;;;;;1862070;76;21147;-80
2023/05/22 06:27:51;;;;;;;29.65;17.40;;;37.20;59.00;;;;;;1885264;74;22210;-80
2023/05/22 06:30:22;;;;;;;27.58;17.07;;;37.20;58.70;;;;;;1894483;74;21111;-79
2023/05/22 06:32:55;;;;;;;23.27;16.93;;;37.30;58.90;;;;;;1878378;74;21275;-81
2023/05/22 06:35:27;;;;;;;31.50;17.15;;;37.30;58.90;;;;;;1873441;76;21643;-80
2023/05/22 06:38:02;;;;;;;27.58;17.07;;;37.20;58.20;;;;;;1883547;74;22074;-81
2023/05/22 06:40:34;;;;;;;21.77;16.42;;;37.20;58.30;;;;;;1871413;76;21119;-78
2023/05/22 06:43:24;;;;;;;23.50;16.45;;;37.20;57.90;;;;;;1866122;76;21199;-77
2023/05/22 06:49:26;;;;;;;23.70;14.90;;;37.30;56.90;;;;;;1725746;80;21159;-76
2023/05/22 07:04:34;;;;;;;30.50;15.32;;;37.40;57.00;;;;;;1734215;81;21734;-82
2023/05/22 07:07:08;;;;;;;24.57;14.90;;;37.40;57.30;;;;;;1782053;76;21186;-79
2023/05/22 07:09:47;;;;;;;24.10;14.75;;;37.50;57.30;;;;;;1849538;76;22181;-81
2023/05/22 07:12:19;;;;;;;21.80;14.80;;;37.40;57.10;;;;;;1878078;75;21301;-77
2023/05/22 07:14:54;;;;;;;23.83;15.63;;;37.50;57.20;;;;;;1875990;75;21195;-81
2023/05/22 07:17:40;;;;;;;;;;;;;;;;;;;;;
2023/05/22 07:23:23;;;;;;;28.83;17.65;;;37.30;58.60;;;;;;1754061;80;21602;-79
2023/05/22 07:26:14;;;;;;;24.50;15.43;;;37.40;58.70;;;;;;1574550;86;21349;-84
2023/05/22 07:29:35;;;;;;;20.90;15.65;;;37.30;58.80;;;;;;1618836;85;21279;-79
2023/05/22 07:32:26;;;;;;;21.07;15.68;;;37.30;58.70;;;;;;1619928;86;21235;-80
2023/05/22 07:35:17;;;;;;;23.57;15.38;;;37.30;58.00;;;;;;1545789;88;21316;-78
2023/05/22 07:37:48;;;;;;;21.60;16.37;;;37.40;58.70;;;;;;1717643;82;21674;-83
2023/05/22 07:40:19;;;;;;;26.20;16.30;;;37.40;58.50;;;;;;1736079;82;21269;-82
2023/05/22 07:42:52;;;;;;;20.12;15.03;;;37.50;58.40;;;;;;1790339;79;21726;-81
2023/05/22 07:45:25;;;;;;;25.00;15.60;;;37.50;58.40;;;;;;1786185;79;21124;-86
2023/05/22 07:48:32;;;;;;;18.37;14.98;;;37.50;58.00;;;;;;1784749;79;21321;-80
2023/05/22 07:50:46;;;;;;;19.27;14.30;;;37.50;58.20;;;;;;1771204;79;21213;-81
2023/05/22 07:53:18;;;;;;;18.55;15.03;;;37.60;58.20;;;;;;1777196;80;21183;-81
2023/05/22 07:55:49;;;;;;;38.78;17.17;;;37.60;57.90;;;;;;1790335;79;21186;-80
2023/05/22 07:58:22;;;;;;;23.87;15.68;;;37.60;57.70;;;;;;1742649;80;21740;-84
2023/05/22 08:00:54;;;;;;;21.42;14.98;;;37.60;57.40;;;;;;1838921;75;21204;-80
2023/05/22 08:03:26;;;;;;;25.92;15.65;;;37.50;57.60;;;;;;1876701;75;21195;-83
2023/05/22 08:05:57;;;;;;;23.98;14.95;;;37.50;58.10;;;;;;1863046;76;21696;-80
2023/05/22 08:08:29;;;;;;;38.23;16.65;;;37.50;58.10;;;;;;1870278;75;21237;-79
2023/05/22 08:11:01;;;;;;;22.55;15.95;;;37.50;57.90;;;;;;1866138;75;21135;-81
2023/05/22 08:13:34;;;;;;;23.50;14.90;;;37.50;57.60;;;;;;1870577;75;21251;-80
2023/05/22 08:16:25;;;;;;;19.77;14.40;;;37.50;57.10;;;;;;1864144;76;21084;-79
2023/05/22 08:19:02;;;;;;;23.92;14.73;;;37.50;57.40;;;;;;1842407;76;21131;-78
2023/05/22 08:21:33;;;;;;;30.97;16.20;;;37.40;57.30;;;;;;1864957;76;21059;-83
2023/05/22 08:24:04;;;;;;;25.45;15.90;;;37.40;57.70;;;;;;1877374;75;21071;-81
2023/05/22 08:26:40;;;;;;;19.10;13.95;;;37.40;58.00;;;;;;1866955;75;21139;-78
2023/05/22 08:29:11;;;;;;;25.32;14.35;;;37.30;57.50;;;;;;1861687;75;21492;-79
2023/05/22 08:31:42;;;;;;;30.82;17.85;;;37.30;57.40;;;;;;1873227;75;21210;-83
2023/05/22 08:34:13;;;;;;;23.73;16.37;;;37.30;57.70;;;;;;1879083;75;21169;-79
2023/05/22 08:36:53;;;;;;;27.67;17.85;;;37.30;58.00;;;;;;1863543;75;21148;-76
2023/05/22 08:39:20;;;;;;;38.13;17.55;;;37.30;58.10;;;;;;1869269;75;21122;-77
2023/05/22 08:42:07;;;;;;;;;;;;;;;;;;;;;
2023/05/22 08:44:42;;;;;;;21.80;15.50;;;37.30;57.70;;;;;;1878571;75;21076;-77
2023/05/22 08:47:22;;;;;;;26.15;17.82;;;37.30;57.10;;;;;;1874106;75;21650;-81
2023/05/22 08:49:57;;;;;;;38.92;19.07;;;37.30;57.10;;;;;;1861184;75;21878;-76
2023/05/22 08:52:39;;;;;;;28.10;16.30;;;37.30;57.60;;;;;;1866588;75;21198;-84
2023/05/22 08:55:12;;;;;;;29.07;18.65;;;37.30;57.00;;;;;;1838241;76;21073;-80
2023/05/22 08:57:44;;;;;;;21.02;15.80;;;37.30;57.30;;;;;;1838088;76;21707;-78
2023/05/22 09:00:16;;;;;;;33.48;18.45;;;37.30;56.90;;;;;;1874067;75;21167;-75
2023/05/22 09:02:49;;;;;;;27.17;14.98;;;37.20;57.60;;;;;;1874359;75;21147;-78
2023/05/22 09:05:30;;;;;;;;;;;37.20;57.10;;;;;;1874540;76;21228;-80
2023/05/22 09:08:09;;;;;;;27.52;18.77;;;37.20;57.70;;;;;;1845547;76;20242;-78
2023/05/22 09:10:44;;;;;;;20.45;14.47;;;37.20;57.20;;;;;;1869619;75;21131;-80
2023/05/22 09:13:27;;;;;;;27.77;15.65;;;37.10;56.50;;;;;;1873972;75;21173;-76
2023/05/22 09:16:12;;;;;;;18.77;14.07;;;37.20;56.80;;;;;;1870888;75;21085;-78
2023/05/22 09:18:45;;;;;;;27.20;16.35;;;37.10;57.30;;;;;;1867032;75;21215;-78
2023/05/22 09:21:18;;;;;;;21.23;14.43;;;37.10;57.10;;;;;;1859277;75;21574;-78
2023/05/22 09:23:51;;;;;;;19.25;14.63;;;37.10;57.40;;;;;;1873817;75;21223;-80
2023/05/22 09:26:25;;;;;;;27.90;16.35;;;37.10;56.60;;;;;;1870029;75;21294;-76
2023/05/22 09:28:57;;;;;;;31.37;16.30;;;37.00;56.80;;;;;;1880382;75;21165;-80
2023/05/22 09:31:31;;;;;;;34.50;15.98;;;37.10;57.00;;;;;;1872559;75;21056;-79
2023/05/22 09:34:06;;;;;;;18.45;14.05;;;37.00;57.00;;;;;;1874651;75;21098;-77
2023/05/22 09:36:40;;;;;;;35.95;18.65;;;37.00;56.70;;;;;;1876419;75;21233;-78
2023/05/22 09:39:14;;;;;;;30.27;17.85;;;37.00;57.40;;;;;;1879697;75;21187;-77
2023/05/22 09:41:47;;;;;;;25.23;13.50;;;36.90;57.50;;;;;;1867158;75;21602;-77
2023/05/22 09:44:19;;;;;;;29.63;13.22;;;36.70;58.20;;;;;;1880820;75;21128;-87
2023/05/22 09:46:56;;;;;;;25.85;13.68;;;36.50;58.70;;;;;;1879690;75;21167;-89
2023/05/22 09:49:39;;;;;;;21.65;12.98;;;36.30;59.20;;;;;;1790460;77;21154;-90
2023/05/22 09:52:17;;;;;;;21.10;12.70;;;36.00;59.70;;;;;;1876713;75;21144;-88
2023/05/22 09:55:09;;;;;;;;;;;;;;;;;;;;;
2023/05/22 09:58:10;;;;;;;;;;;;;;;;;;;;;
2023/05/22 10:01:30;;;;;;;23.22;14.43;;;35.50;62.70;;;;;;1831912;75;21807;-90
2023/05/22 10:05:22;;;;;;;;;;;;;;;;;;;;;
2023/05/22 10:11:05;;;;;;;;;;;;;;;;;;;;;
2023/05/22 10:14:11;;;;;;;20.20;14.25;;;35.00;65.30;;;;;;1935096;73;22093;-84
2023/05/22 10:20:02;;;;;;;41.15;17.35;;;35.00;64.60;;;;;;1763804;78;21213;-90
2023/05/22 10:26:43;;;;;;;40.52;16.82;;;35.00;64.90;;;;;;1712001;82;21185;-86
2023/05/22 10:29:17;;;;;;;46.15;15.18;;;35.00;65.20;;;;;;1744660;81;21205;-86
2023/05/22 10:32:00;;;;;;;40.00;14.28;;;34.90;64.90;;;;;;1797788;78;21148;-86
2023/05/22 10:34:36;;;;;;;44.05;16.20;;;34.90;65.30;;;;;;1894837;75;21104;-87
2023/05/22 10:37:21;;;;;;;52.90;17.50;;;34.80;65.90;;;;;;1897868;75;21116;-85
2023/05/22 10:40:17;;;;;;;;;;;;;;;;;;;;;
2023/05/22 10:43:01;;;;;;;29.07;14.53;;;34.60;66.80;;;;;;1765985;80;21210;-87
2023/05/22 10:45:36;;;;;;;38.48;17.25;;;34.50;66.50;;;;;;1776493;80;21374;-85
2023/05/22 10:48:13;;;;;;;40.48;18.45;;;34.40;67.40;;;;;;1782259;80;21261;-86
2023/05/22 10:50:53;;;;;;;30.35;16.07;;;34.30;66.60;;;;;;1778144;80;21186;-85
2023/05/22 10:53:27;;;;;;;27.65;17.23;;;34.30;66.40;;;;;;1776419;80;21153;-88
2023/05/22 10:56:02;;;;;;;40.95;21.93;;;34.20;67.30;;;;;;1778550;80;21241;-87
2023/05/22 10:58:38;;;;;;;46.73;24.47;;;34.10;68.20;;;;;;1769704;80;21253;-87
2023/05/22 11:01:20;;;;;;;33.18;19.98;;;33.90;69.00;;;;;;1778072;80;21135;-86
2023/05/22 11:03:59;;;;;;;33.40;17.55;;;33.90;69.50;;;;;;1775312;80;22275;-85
2023/05/22 11:06:48;;;;;;;36.30;18.70;;;33.80;69.70;;;;;;1783129;80;21166;-87
2023/05/22 11:12:48;;;;;;;44.15;21.12;;;33.50;71.00;;;;;;1771552;80;21688;-87
2023/05/22 11:15:20;;;;;;;24.77;16.17;;;33.40;71.10;;;;;;1771430;80;21158;-86
2023/05/22 11:17:52;;;;;;;24.32;16.20;;;33.40;71.90;;;;;;1782731;80;21633;-86
2023/05/22 11:20:29;;;;;;;29.23;18.73;;;33.40;72.10;;;;;;1846845;75;21461;-88
2023/05/22 11:23:10;;;;;;;39.78;22.48;;;33.40;72.80;;;;;;1893784;75;21222;-87
2023/05/22 11:25:39;;;;;;;30.70;19.65;;;33.30;73.70;;;;;;1892043;75;21173;-87
2023/05/22 11:28:12;;;;;;;39.70;20.00;;;33.30;74.40;;;;;;1900649;75;21037;-88
2023/05/22 11:30:44;;;;;;;26.52;16.67;;;33.20;74.90;;;;;;1894703;75;21097;-88
2023/05/22 11:33:15;;;;;;;22.95;15.20;;;33.10;76.60;;;;;;1893616;75;21160;-87
2023/05/22 11:35:50;;;;;;;24.07;16.25;;;33.00;76.50;;;;;;1897208;75;21156;-84
2023/05/22 11:41:52;;;;;;;27.07;16.30;;;32.90;77.50;;;;;;1859985;75;21572;-86
2023/05/22 11:44:25;;;;;;;22.10;16.20;;;32.90;77.60;;;;;;1882207;75;21065;-88
2023/05/22 11:46:58;;;;;;;21.52;15.38;;;32.80;78.10;;;;;;1898806;75;21526;-84
2023/05/22 11:49:29;;;;;;;58.38;19.12;;;32.80;78.30;;;;;;1899830;75;21088;-86
2023/05/22 11:52:02;;;;;;;24.07;16.32;;;32.70;78.30;;;;;;1891115;75;21510;-85
2023/05/22 11:54:33;;;;;;;21.30;15.43;;;32.70;77.70;;;;;;1901149;75;21093;-85
2023/05/22 11:57:13;;;;;;;19.73;15.78;;;32.70;78.40;;;;;;1892544;74;21641;-86
2023/05/22 11:59:49;;;;;;;21.82;15.80;;;32.70;78.30;;;;;;1904377;75;21681;-86
2023/05/22 12:02:21;;;;;;;18.00;15.90;;;32.60;77.80;;;;;;1891385;75;21257;-83
2023/05/22 12:04:56;;;;;;;19.50;13.95;;;32.50;77.20;;;;;;1894436;75;21222;-85
2023/05/22 12:07:28;;;;;;;19.00;14.83;;;32.40;76.50;;;;;;1894762;75;21085;-83
2023/05/22 12:09:59;;;;;;;19.73;14.50;;;32.20;77.40;;;;;;1907573;75;21222;-83
2023/05/22 12:12:33;;;;;;;19.85;15.72;;;32.00;78.40;;;;;;1892467;74;21088;-85
2023/05/22 12:15:05;;;;;;;21.77;15.30;;;31.90;79.40;;;;;;1912534;74;21037;-85
2023/05/22 12:17:37;;;;;;;26.02;15.85;;;31.90;79.90;;;;;;1892029;74;21732;-85
2023/05/22 12:20:11;;;;;;;39.23;16.25;;;31.80;79.60;;;;;;1905482;74;21205;-84
2023/05/22 12:22:44;;;;;;;24.55;15.80;;;31.80;79.80;;;;;;1909211;74;21139;-83
2023/05/22 12:25:19;;;;;;;26.07;16.40;;;31.90;79.80;;;;;;1907025;74;21120;-83
2023/05/22 12:27:51;;;;;;;24.30;15.25;;;31.90;80.20;;;;;;1919253;74;21174;-84
2023/05/22 12:30:23;;;;;;;18.95;15.90;;;32.00;80.50;;;;;;1896183;74;21809;-84
2023/05/22 12:32:55;;;;;;;23.50;15.83;;;31.90;80.80;;;;;;1905091;74;21147;-84
2023/05/22 12:35:29;;;;;;;34.43;17.37;;;31.90;80.50;;;;;;1893933;74;21205;-84
2023/05/22 12:38:00;;;;;;;23.45;16.70;;;31.90;80.60;;;;;;1918241;74;21136;-83
2023/05/22 12:40:32;;;;;;;23.10;16.12;;;32.00;80.80;;;;;;1906553;74;21072;-83
2023/05/22 12:43:04;;;;;;;22.00;16.62;;;32.00;80.50;;;;;;1907101;74;21107;-85
2023/05/22 12:45:40;;;;;;;19.67;15.35;;;31.90;79.70;;;;;;1905640;74;21080;-83
2023/05/22 12:48:10;;;;;;;21.15;15.48;;;31.90;78.90;;;;;;1902573;74;21148;-83
2023/05/22 12:50:42;;;;;;;23.38;16.45;;;31.90;79.10;;;;;;1906068;74;21623;-82
2023/05/22 12:53:13;;;;;;;27.73;15.60;;;31.90;79.50;;;;;;1895635;74;21218;-83
2023/05/22 12:55:51;;;;;;;21.23;15.43;;;31.90;80.00;;;;;;1903727;74;21647;-83
2023/05/22 12:58:22;;;;;;;22.37;15.25;;;31.90;80.30;;;;;;1888110;74;21193;-84
2023/05/22 13:01:23;;;;;;;;;;;;;;;;;;;;;
2023/05/22 13:03:55;;;;;;;19.00;13.75;;;31.80;80.00;;;;;;1859171;75;21716;-82
2023/05/22 13:06:26;;;;;;;22.00;14.53;;;31.70;79.80;;;;;;1858823;77;21249;-84
2023/05/22 13:08:59;;;;;;;17.20;13.80;;;31.70;79.80;;;;;;1874483;76;21130;-83
2023/05/22 13:11:30;;;;;;;15.60;13.05;;;31.60;79.90;;;;;;1865003;76;21151;-83
2023/05/22 13:14:02;;;;;;;16.55;13.28;;;31.60;79.60;;;;;;1883498;76;21135;-83
2023/05/22 13:16:35;;;;;;;19.02;13.78;;;31.60;79.90;;;;;;1865954;76;21115;-84
2023/05/22 13:19:07;;;;;;;18.20;13.98;;;31.60;80.00;;;;;;1861231;76;21174;-83
2023/05/22 13:21:38;;;;;;;17.42;12.70;;;31.50;80.30;;;;;;1881003;76;21076;-84
2023/05/22 13:24:10;;;;;;;21.07;13.32;;;31.50;79.90;;;;;;1872300;76;21697;-82
2023/05/22 13:26:41;;;;;;;18.82;13.65;;;31.50;79.90;;;;;;1875398;75;21131;-83
2023/05/22 13:29:33;;;;;;;20.15;13.70;;;31.50;80.00;;;;;;1883059;75;21571;-83
2023/05/22 13:32:05;;;;;;;17.65;12.95;;;31.40;79.80;;;;;;1883603;76;21123;-85
2023/05/22 13:35:24;;;;;;;23.50;13.83;;;31.40;79.90;;;;;;1865950;76;21142;-83
2023/05/22 13:37:56;;;;;;;18.90;13.03;;;31.40;80.10;;;;;;1857273;75;21123;-84
2023/05/22 13:40:35;;;;;;;14.80;11.93;;;31.30;80.30;;;;;;1874387;76;21136;-82
2023/05/22 13:43:07;;;;;;;41.58;16.17;;;31.30;80.40;;;;;;1884263;76;21153;-82
2023/05/22 13:45:39;;;;;;;18.73;12.82;;;31.30;80.90;;;;;;1876135;75;21165;-85
2023/05/22 13:48:13;;;;;;;17.75;12.85;;;31.30;80.90;;;;;;1885630;75;21133;-84
2023/05/22 13:50:45;;;;;;;18.37;13.15;;;31.40;80.90;;;;;;1888134;76;21134;-82
2023/05/22 13:53:16;;;;;;;23.50;13.43;;;31.40;80.80;;;;;;1883246;76;21544;-84
2023/05/22 13:55:47;;;;;;;20.40;12.78;;;31.30;81.00;;;;;;1890178;76;21143;-84
2023/05/22 13:58:36;;;;;;;14.93;12.35;;;31.20;81.10;;;;;;1889894;75;21182;-83
2023/05/22 14:01:08;;;;;;;14.10;12.47;;;31.10;81.30;;;;;;1890435;76;21143;-83
2023/05/22 14:03:40;;;;;;;16.20;12.15;;;31.10;81.20;;;;;;1890609;76;21679;-83